Time;durP1;ratioP1;P1;durP2;ratioP2;P2;SDS_P1;SDS_P2;PMS_P1;PMS_P2;Temp;Humidity;BMP_temperature;BMP_pressure;BME280_temperature;BME280_humidity;BME280_pressure;Samples;Min_cycle;Max_cycle;Signal;HPM_P1;HPM_P2
2022/03/12 00:00:13;;;;;;;15.25;7.43;;;11.00;91.10;;;;;;5022370;28;20437;-40
2022/03/12 00:02:39;;;;;;;13.55;7.63;;;11.00;91.30;;;;;;5032804;28;20033;-42
2022/03/12 00:05:07;;;;;;;13.45;6.82;;;11.00;91.10;;;;;;5018351;28;20569;-40
2022/03/12 00:07:35;;;;;;;11.65;6.78;;;11.00;91.50;;;;;;5024390;28;20056;-39
2022/03/12 00:10:02;;;;;;;16.88;7.07;;;11.00;91.40;;;;;;5015534;28;20029;-40
2022/03/12 00:12:36;;;;;;;10.95;6.60;;;11.10;91.60;;;;;;5046340;28;20629;-40
2022/03/12 00:15:09;;;;;;;15.32;7.07;;;11.00;92.00;;;;;;5014531;28;20073;-41
2022/03/12 00:17:36;;;;;;;16.10;8.13;;;11.00;91.70;;;;;;5015121;28;20030;-41
2022/03/12 00:20:06;;;;;;;12.82;7.85;;;11.00;92.10;;;;;;5027474;28;20025;-39
2022/03/12 00:22:32;;;;;;;16.60;7.20;;;10.90;92.50;;;;;;5023862;28;20029;-39
2022/03/12 00:25:18;;;;;;;19.88;7.07;;;10.80;92.50;;;;;;5020495;28;20113;-36
2022/03/12 00:27:45;;;;;;;14.55;7.35;;;10.80;92.50;;;;;;5025354;28;20033;-37
2022/03/12 00:30:16;;;;;;;12.32;7.00;;;10.80;92.50;;;;;;5019757;28;20036;-37
2022/03/12 00:32:42;;;;;;;14.02;7.07;;;10.90;92.30;;;;;;5025968;28;20033;-35
2022/03/12 00:35:11;;;;;;;12.40;6.43;;;11.00;92.20;;;;;;5031660;28;20080;-34
2022/03/12 00:37:38;;;;;;;15.73;8.23;;;11.00;92.00;;;;;;5031172;28;20043;-38
2022/03/12 00:40:04;;;;;;;18.30;7.75;;;11.00;91.80;;;;;;5031213;28;20067;-35
2022/03/12 00:42:31;;;;;;;9.88;6.50;;;11.00;92.10;;;;;;5016647;28;20504;-30
2022/03/12 00:44:57;;;;;;;10.43;6.53;;;11.10;92.00;;;;;;5033265;28;20060;-31
2022/03/12 00:47:22;;;;;;;13.27;6.90;;;11.00;92.40;;;;;;5025224;28;20123;-33
2022/03/12 00:49:49;;;;;;;12.00;7.05;;;11.10;92.10;;;;;;5013742;28;20070;-35
2022/03/12 00:52:16;;;;;;;13.38;7.13;;;11.10;92.30;;;;;;5022687;28;20087;-35
2022/03/12 00:54:42;;;;;;;14.23;6.82;;;11.10;92.00;;;;;;5031557;28;20445;-37
2022/03/12 00:57:10;;;;;;;16.38;7.55;;;11.10;92.10;;;;;;5026931;28;20022;-33
2022/03/12 00:59:39;;;;;;;16.67;6.93;;;11.20;92.00;;;;;;5015431;28;20124;-35
2022/03/12 01:02:06;;;;;;;16.85;7.45;;;11.30;92.20;;;;;;5028230;28;20018;-37
2022/03/12 01:04:31;;;;;;;13.75;7.80;;;11.30;91.80;;;;;;5015518;28;20581;-33
2022/03/12 01:06:57;;;;;;;13.63;7.07;;;11.30;92.10;;;;;;5033274;28;20104;-33
2022/03/12 01:09:23;;;;;;;14.20;7.38;;;11.30;92.30;;;;;;5031753;28;20029;-35
2022/03/12 01:11:49;;;;;;;19.40;7.78;;;11.30;92.00;;;;;;5027410;28;20521;-33
2022/03/12 01:14:15;;;;;;;16.38;7.97;;;11.30;92.00;;;;;;5021905;28;20133;-37
2022/03/12 01:16:41;;;;;;;18.77;8.45;;;11.30;91.90;;;;;;5031081;28;20441;-34
2022/03/12 01:19:08;;;;;;;23.05;7.70;;;11.30;92.20;;;;;;5026503;28;20104;-46
2022/03/12 01:21:34;;;;;;;16.58;8.40;;;11.30;93.00;;;;;;5028585;28;20026;-38
2022/03/12 01:23:59;;;;;;;17.02;7.65;;;11.40;92.80;;;;;;5024951;28;20033;-39
2022/03/12 01:26:25;;;;;;;13.55;6.85;;;11.40;93.00;;;;;;5028256;28;20079;-34
2022/03/12 01:28:51;;;;;;;16.55;7.85;;;11.30;93.70;;;;;;5032939;28;20031;-35
2022/03/12 01:31:18;;;;;;;13.38;7.18;;;11.20;94.00;;;;;;5031187;28;20033;-34
2022/03/12 01:33:44;;;;;;;20.25;7.57;;;11.20;94.60;;;;;;5015250;28;20116;-37
2022/03/12 01:36:10;;;;;;;14.57;7.63;;;11.20;95.30;;;;;;5031297;28;20465;-39
2022/03/12 01:38:51;;;;;;;14.48;7.53;;;11.00;96.50;;;;;;5031650;28;20103;-35
2022/03/12 01:41:30;;;;;;;18.60;7.97;;;10.90;97.20;;;;;;5032308;28;20029;-32
2022/03/12 01:43:57;;;;;;;13.63;8.10;;;10.80;97.00;;;;;;5031938;28;20108;-33
2022/03/12 01:46:30;;;;;;;15.77;7.15;;;10.70;97.00;;;;;;5032357;28;20421;-34
2022/03/12 01:48:59;;;;;;;16.33;8.32;;;10.70;97.70;;;;;;5032495;28;20033;-35
2022/03/12 01:51:28;;;;;;;15.95;8.05;;;10.70;98.30;;;;;;5031935;28;20053;-36
2022/03/12 01:53:54;;;;;;;12.98;6.78;;;10.60;97.80;;;;;;5032464;28;20032;-32
2022/03/12 01:56:20;;;;;;;14.73;7.45;;;10.60;97.50;;;;;;5027747;28;20096;-32
2022/03/12 01:58:50;;;;;;;16.10;8.05;;;10.60;98.00;;;;;;5031598;28;20458;-37
2022/03/12 02:01:18;;;;;;;15.02;7.28;;;10.50;98.00;;;;;;5032152;28;20017;-32
2022/03/12 02:03:45;;;;;;;21.52;8.02;;;10.60;97.70;;;;;;5030882;28;20034;-32
2022/03/12 02:06:19;;;;;;;15.38;7.03;;;10.60;98.40;;;;;;5027031;28;20112;-38
2022/03/12 02:08:48;;;;;;;17.17;8.45;;;10.60;98.50;;;;;;5031246;28;20017;-36
2022/03/12 02:11:27;;;;;;;15.63;7.70;;;10.50;98.40;;;;;;5030840;28;20088;-33
2022/03/12 02:14:09;;;;;;;24.13;7.95;;;10.50;97.90;;;;;;5029358;28;20025;-35
2022/03/12 02:16:35;;;;;;;15.23;7.40;;;10.70;98.00;;;;;;5020775;28;20032;-33
2022/03/12 02:19:02;;;;;;;13.25;7.60;;;10.60;97.50;;;;;;5036323;28;20075;-34
2022/03/12 02:21:40;;;;;;;13.05;7.53;;;10.60;97.70;;;;;;5034409;28;20028;-30
2022/03/12 02:24:15;;;;;;;15.35;7.60;;;10.60;97.90;;;;;;5026027;28;20425;-31
2022/03/12 02:26:43;;;;;;;11.98;7.20;;;10.60;97.10;;;;;;5017750;28;20083;-33
2022/03/12 02:29:18;;;;;;;16.77;7.65;;;10.80;97.00;;;;;;5020714;28;20427;-31
2022/03/12 02:31:56;;;;;;;12.82;6.88;;;10.70;97.40;;;;;;5015867;28;20050;-33
2022/03/12 02:34:25;;;;;;;14.45;7.50;;;10.70;96.90;;;;;;5031160;28;20394;-35
2022/03/12 02:36:52;;;;;;;16.08;7.30;;;10.80;97.20;;;;;;5021683;28;20034;-31
2022/03/12 02:39:20;;;;;;;13.73;7.68;;;10.80;97.40;;;;;;5016529;28;20432;-32
2022/03/12 02:41:47;;;;;;;16.77;7.93;;;10.80;97.20;;;;;;5021207;28;20021;-31
2022/03/12 02:44:19;;;;;;;19.00;7.57;;;10.70;96.70;;;;;;5033625;28;20030;-56
2022/03/12 02:47:15;;;;;;;15.23;8.25;;;10.80;97.00;;;;;;5016227;28;20018;-36
2022/03/12 02:50:12;;;;;;;17.63;7.32;;;10.80;96.80;;;;;;5027700;28;20090;-37
2022/03/12 02:52:39;;;;;;;;;;;10.80;97.40;;;;;;5028357;28;20034;-40
2022/03/12 02:55:06;;;;;;;13.18;6.80;;;10.80;96.80;;;;;;5018127;28;19963;-38
2022/03/12 02:57:31;;;;;;;20.17;7.97;;;10.80;97.20;;;;;;5016111;28;20025;-38
2022/03/12 03:00:04;;;;;;;17.85;7.22;;;10.80;97.20;;;;;;5015986;28;20026;-38
2022/03/12 03:02:52;;;;;;;15.90;7.60;;;10.70;97.20;;;;;;5033027;28;20025;-39
2022/03/12 03:08:00;;;;;;;12.10;6.68;;;10.80;97.30;;;;;;5036017;28;20025;-39
2022/03/12 03:10:34;;;;;;;15.60;7.18;;;10.80;97.30;;;;;;5034727;28;20025;-37
2022/03/12 03:13:21;;;;;;;14.57;7.65;;;10.80;97.30;;;;;;5015350;28;20030;-38
2022/03/12 03:15:55;;;;;;;13.63;7.27;;;10.80;97.40;;;;;;5017357;28;20053;-32
2022/03/12 03:18:24;;;;;;;12.98;7.13;;;10.80;97.40;;;;;;5034584;28;20017;-35
2022/03/12 03:20:52;;;;;;;15.65;7.68;;;10.80;97.60;;;;;;5033680;28;20145;-36
2022/03/12 03:23:20;;;;;;;16.58;7.53;;;10.80;97.70;;;;;;5034124;28;20030;-33
2022/03/12 03:25:46;;;;;;;;;;;10.70;98.00;;;;;;5020618;28;20034;-32
2022/03/12 03:28:12;;;;;;;17.60;8.57;;;10.70;98.10;;;;;;5014294;28;19909;-32
2022/03/12 03:30:39;;;;;;;16.00;8.38;;;10.60;98.10;;;;;;5014147;28;20105;-49
2022/03/12 03:33:13;;;;;;;17.55;7.80;;;10.60;98.00;;;;;;5014159;28;20041;-36
2022/03/12 03:35:39;;;;;;;14.70;7.47;;;10.60;98.20;;;;;;5024947;28;20045;-38
2022/03/12 03:38:06;;;;;;;13.52;6.85;;;10.50;98.20;;;;;;5017398;28;20018;-39
2022/03/12 03:40:31;;;;;;;18.67;7.60;;;10.50;98.40;;;;;;5014255;28;20025;-39
2022/03/12 03:42:57;;;;;;;14.52;7.30;;;10.40;98.60;;;;;;5014156;28;20030;-39
2022/03/12 03:45:27;;;;;;;19.23;7.60;;;10.40;98.80;;;;;;5026237;28;20041;-39
2022/03/12 03:47:55;;;;;;;17.50;7.80;;;10.40;98.60;;;;;;5027324;28;20080;-33
2022/03/12 03:50:25;;;;;;;15.77;8.57;;;10.30;98.90;;;;;;5014198;28;20493;-31
2022/03/12 03:52:56;;;;;;;17.05;7.88;;;10.30;98.90;;;;;;5026061;28;20025;-31
2022/03/12 03:55:25;;;;;;;18.27;6.88;;;10.30;99.00;;;;;;5022555;28;20474;-32
2022/03/12 03:57:53;;;;;;;18.33;8.13;;;10.30;99.10;;;;;;5015047;28;20014;-31
2022/03/12 04:00:21;;;;;;;15.60;7.72;;;10.20;99.10;;;;;;5017907;28;20442;-34
2022/03/12 04:02:47;;;;;;;17.08;7.57;;;10.20;99.40;;;;;;5032844;28;20029;-34
2022/03/12 04:05:13;;;;;;;13.65;7.28;;;10.10;99.50;;;;;;5027698;28;20083;-31
2022/03/12 04:07:38;;;;;;;13.70;7.47;;;10.10;99.60;;;;;;5013865;28;20026;-34
2022/03/12 04:10:04;;;;;;;13.63;7.47;;;10.10;99.70;;;;;;5013665;28;20493;-34
2022/03/12 04:12:30;;;;;;;18.33;7.20;;;10.10;99.70;;;;;;5027926;28;20026;-31
2022/03/12 04:14:58;;;;;;;16.60;7.80;;;10.00;99.90;;;;;;4996333;28;1060108;-41
2022/03/12 04:17:24;;;;;;;10.70;5.97;;;10.00;99.90;;;;;;5028612;28;20037;-31
2022/03/12 04:19:50;;;;;;;16.83;7.70;;;10.00;99.90;;;;;;5014472;28;20049;-33
2022/03/12 04:22:16;;;;;;;12.07;6.40;;;10.00;99.90;;;;;;5014325;28;20022;-39
2022/03/12 04:24:42;;;;;;;13.90;7.40;;;9.90;99.90;;;;;;5014664;28;20026;-33
2022/03/12 04:27:08;;;;;;;14.63;7.18;;;9.90;99.90;;;;;;5029431;28;20036;-33
2022/03/12 04:29:34;;;;;;;13.52;7.15;;;9.90;99.90;;;;;;5033883;28;20029;-33
2022/03/12 04:31:59;;;;;;;14.13;7.03;;;9.80;99.90;;;;;;5033861;28;20036;-36
2022/03/12 04:34:25;;;;;;;12.48;6.85;;;9.80;99.90;;;;;;5033142;28;20022;-33
2022/03/12 04:36:52;;;;;;;13.45;7.28;;;9.80;99.90;;;;;;5033594;28;20025;-32
2022/03/12 04:39:17;;;;;;;14.77;6.38;;;9.80;99.90;;;;;;5034070;28;20030;-37
2022/03/12 04:41:43;;;;;;;12.68;6.82;;;9.70;99.90;;;;;;5033945;28;20017;-39
2022/03/12 04:44:09;;;;;;;15.57;5.80;;;9.70;99.90;;;;;;5033768;28;20037;-39
2022/03/12 04:46:35;;;;;;;9.95;6.10;;;9.70;99.90;;;;;;5033586;28;20029;-38
2022/03/12 04:49:02;;;;;;;11.18;5.97;;;9.70;99.90;;;;;;5033697;28;20051;-38
2022/03/12 04:51:29;;;;;;;11.45;6.50;;;9.80;99.90;;;;;;5033422;28;20025;-37
2022/03/12 04:53:59;;;;;;;13.05;5.88;;;9.90;99.90;;;;;;5024162;28;20018;-38
2022/03/12 04:56:25;;;;;;;8.90;5.47;;;10.00;99.90;;;;;;5014562;28;20026;-36
2022/03/12 04:58:56;;;;;;;11.45;5.75;;;10.00;99.90;;;;;;5015677;28;20102;-34
2022/03/12 05:01:21;;;;;;;9.57;5.75;;;10.00;99.90;;;;;;5018051;28;20083;-32
2022/03/12 05:03:48;;;;;;;10.55;5.55;;;10.10;99.90;;;;;;5030016;28;20026;-34
2022/03/12 05:06:15;;;;;;;8.13;4.20;;;10.10;99.90;;;;;;5032046;28;20597;-34
2022/03/12 05:08:41;;;;;;;11.20;5.30;;;10.00;99.90;;;;;;5031310;28;20075;-50
2022/03/12 05:11:08;;;;;;;8.82;5.20;;;10.10;99.90;;;;;;5013586;28;20522;-34
2022/03/12 05:13:34;;;;;;;8.90;5.00;;;10.00;99.90;;;;;;5014480;28;20026;-47
2022/03/12 05:16:03;;;;;;;7.72;4.20;;;10.00;99.90;;;;;;5013398;28;20046;-31
2022/03/12 05:18:30;;;;;;;7.32;4.40;;;10.10;99.90;;;;;;5025735;28;20026;-50
2022/03/12 05:20:56;;;;;;;7.13;4.57;;;10.10;99.90;;;;;;5020195;28;20018;-38
2022/03/12 05:23:22;;;;;;;7.75;4.22;;;10.20;99.90;;;;;;5019318;28;20110;-38
2022/03/12 05:25:49;;;;;;;8.50;4.95;;;10.20;99.90;;;;;;5013924;28;20021;-37
2022/03/12 05:28:39;;;;;;;9.40;4.15;;;10.20;99.90;;;;;;5019316;28;20029;-38
2022/03/12 05:31:05;;;;;;;8.77;4.50;;;10.10;99.90;;;;;;5032349;28;20030;-38
2022/03/12 05:33:31;;;;;;;7.18;4.03;;;10.10;99.90;;;;;;5021924;28;20088;-37
2022/03/12 05:35:58;;;;;;;7.25;4.28;;;10.10;99.90;;;;;;5013542;28;20038;-38
2022/03/12 05:38:32;;;;;;;10.52;4.78;;;10.00;99.90;;;;;;5023410;28;20022;-46
2022/03/12 05:40:58;;;;;;;9.88;4.70;;;9.90;99.90;;;;;;5013222;28;20478;-39
2022/03/12 05:43:25;;;;;;;7.68;4.28;;;9.90;99.90;;;;;;5029263;28;20017;-37
2022/03/12 05:45:52;;;;;;;8.35;4.38;;;9.90;99.90;;;;;;5019949;28;20513;-39
2022/03/12 05:48:19;;;;;;;9.37;4.40;;;9.90;99.90;;;;;;5032376;28;20478;-39
2022/03/12 05:50:46;;;;;;;6.25;4.03;;;9.80;99.90;;;;;;5032841;28;20491;-38
2022/03/12 05:53:13;;;;;;;7.63;4.30;;;9.80;99.90;;;;;;5032692;28;20115;-30
2022/03/12 05:55:39;;;;;;;7.15;3.75;;;9.80;99.90;;;;;;5032987;28;20268;-36
2022/03/12 05:58:10;;;;;;;9.15;4.97;;;9.70;99.90;;;;;;5014170;28;20109;-36
2022/03/12 06:00:39;;;;;;;7.22;4.10;;;9.60;99.90;;;;;;5012753;28;20018;-33
2022/03/12 06:03:05;;;;;;;9.48;4.43;;;9.60;99.90;;;;;;5024379;28;20517;-31
2022/03/12 06:05:31;;;;;;;7.97;4.32;;;9.70;99.90;;;;;;5032490;28;20026;-36
2022/03/12 06:07:58;;;;;;;6.05;3.83;;;9.70;99.90;;;;;;5031556;28;20075;-35
2022/03/12 06:10:28;;;;;;;6.60;4.07;;;9.70;99.90;;;;;;5012720;28;20026;-34
2022/03/12 06:12:56;;;;;;;7.55;4.13;;;9.70;99.90;;;;;;5012585;28;20030;-31
2022/03/12 06:15:24;;;;;;;11.95;4.93;;;9.70;99.90;;;;;;5012535;28;20450;-34
2022/03/12 06:17:50;;;;;;;7.25;4.38;;;9.70;99.90;;;;;;5012728;28;20022;-39
2022/03/12 06:20:17;;;;;;;7.95;4.80;;;9.60;99.90;;;;;;5029612;28;20543;-31
2022/03/12 06:22:44;;;;;;;7.50;4.37;;;9.70;99.90;;;;;;5031083;28;20024;-32
2022/03/12 06:25:12;;;;;;;6.97;4.25;;;9.70;99.90;;;;;;5032439;28;20076;-35
2022/03/12 06:27:39;;;;;;;5.63;3.92;;;9.80;99.90;;;;;;5032270;28;20556;-42
2022/03/12 06:30:08;;;;;;;7.97;3.92;;;9.70;99.90;;;;;;5031992;28;20036;-31
2022/03/12 06:32:35;;;;;;;6.80;4.35;;;9.70;99.90;;;;;;5015467;28;20022;-31
2022/03/12 06:35:01;;;;;;;6.95;4.30;;;9.70;99.90;;;;;;5012587;28;20049;-32
2022/03/12 06:37:27;;;;;;;9.60;4.00;;;9.70;99.90;;;;;;5013659;28;20113;-32
2022/03/12 06:39:54;;;;;;;9.85;4.40;;;9.70;99.90;;;;;;5026792;28;20076;-35
2022/03/12 06:42:27;;;;;;;6.13;4.20;;;9.80;99.90;;;;;;5032435;28;20489;-38
2022/03/12 06:44:55;;;;;;;5.97;4.05;;;9.80;99.90;;;;;;5032574;28;20018;-31
2022/03/12 06:47:22;;;;;;;8.05;4.20;;;9.80;99.90;;;;;;5031841;28;20417;-32
2022/03/12 06:49:48;;;;;;;7.50;4.50;;;9.80;99.90;;;;;;5029719;28;20087;-34
2022/03/12 06:52:14;;;;;;;11.50;4.57;;;9.90;99.90;;;;;;5017113;28;20029;-31
2022/03/12 06:54:39;;;;;;;8.63;4.60;;;9.90;99.90;;;;;;5017677;28;20112;-33
2022/03/12 06:57:05;;;;;;;7.47;4.95;;;10.00;99.90;;;;;;5031404;28;20018;-37
2022/03/12 06:59:32;;;;;;;10.35;4.82;;;10.10;99.90;;;;;;5035666;28;20031;-37
2022/03/12 07:01:57;;;;;;;7.68;4.90;;;10.20;99.90;;;;;;5035311;28;20505;-38
2022/03/12 07:04:23;;;;;;;7.45;4.60;;;10.20;99.90;;;;;;5035694;28;20025;-34
2022/03/12 07:06:49;;;;;;;6.28;4.32;;;10.30;99.90;;;;;;5035601;28;20112;-37
2022/03/12 07:09:16;;;;;;;9.25;4.72;;;10.40;99.90;;;;;;5035812;28;20026;-32
2022/03/12 07:11:43;;;;;;;10.23;4.47;;;10.40;99.90;;;;;;5021222;28;20058;-34
2022/03/12 07:14:09;;;;;;;7.97;5.03;;;10.40;99.90;;;;;;5026943;28;20038;-34
2022/03/12 07:16:34;;;;;;;10.77;4.28;;;10.40;99.90;;;;;;5023657;28;20410;-32
2022/03/12 07:19:01;;;;;;;7.70;4.53;;;10.50;99.90;;;;;;5033787;28;20079;-33
2022/03/12 07:21:28;;;;;;;9.25;4.47;;;10.50;99.90;;;;;;5015913;28;20521;-33
2022/03/12 07:23:54;;;;;;;8.23;5.18;;;10.50;99.90;;;;;;5015669;28;20091;-32
2022/03/12 07:26:20;;;;;;;7.88;4.47;;;10.50;99.90;;;;;;5015722;28;20014;-39
2022/03/12 07:28:47;;;;;;;10.10;4.70;;;10.60;99.90;;;;;;5015401;28;20030;-33
2022/03/12 07:31:15;;;;;;;9.63;4.63;;;10.60;99.90;;;;;;5015442;28;20030;-32
2022/03/12 07:33:41;;;;;;;;;;;10.70;99.90;;;;;;5018205;28;20099;-37
2022/03/12 07:36:06;;;;;;;7.35;4.60;;;10.70;99.90;;;;;;5026229;28;19913;-32
2022/03/12 07:38:32;;;;;;;9.85;4.55;;;10.70;99.90;;;;;;5020920;28;20071;-32
2022/03/12 07:40:58;;;;;;;9.23;5.13;;;10.70;99.90;;;;;;5027216;28;20072;-39
2022/03/12 07:43:24;;;;;;;9.35;4.63;;;10.70;99.90;;;;;;5015376;28;20390;-37
2022/03/12 07:45:50;;;;;;;9.88;4.93;;;10.80;99.90;;;;;;5015186;28;20030;-38
2022/03/12 07:48:16;;;;;;;7.45;4.53;;;10.90;99.90;;;;;;5015360;28;20033;-34
2022/03/12 07:50:44;;;;;;;9.20;4.53;;;11.00;99.90;;;;;;5019911;28;20125;-32
2022/03/12 07:53:10;;;;;;;;;;;11.10;99.90;;;;;;5016718;28;20030;-47
2022/03/12 07:55:36;;;;;;;8.77;5.00;;;11.10;99.90;;;;;;5024475;28;19916;-35
2022/03/12 07:58:01;;;;;;;9.27;5.15;;;11.10;99.90;;;;;;5027066;28;20078;-33
2022/03/12 08:00:29;;;;;;;10.18;5.05;;;11.20;99.90;;;;;;5042435;28;20038;-31
2022/03/12 08:02:55;;;;;;;;;;;11.20;99.90;;;;;;5025745;28;20091;-31
2022/03/12 08:05:23;;;;;;;8.52;4.60;;;11.20;99.90;;;;;;5023591;28;20008;-32
2022/03/12 08:07:50;;;;;;;5.97;3.88;;;11.20;99.90;;;;;;5021852;28;20390;-33
2022/03/12 08:10:16;;;;;;;9.70;5.20;;;11.20;99.90;;;;;;5014450;28;20037;-36
2022/03/12 08:12:43;;;;;;;8.93;5.00;;;11.20;99.90;;;;;;5031119;28;20056;-34
2022/03/12 08:15:12;;;;;;;5.65;4.22;;;11.30;99.90;;;;;;5034229;28;20049;-34
2022/03/12 08:17:38;;;;;;;7.43;4.95;;;11.50;99.90;;;;;;5032960;28;20029;-32
2022/03/12 08:20:08;;;;;;;8.23;5.25;;;11.50;99.90;;;;;;5034213;28;20071;-33
2022/03/12 08:22:38;;;;;;;6.68;4.50;;;11.50;99.90;;;;;;5016072;28;20502;-32
2022/03/12 08:25:07;;;;;;;9.00;4.43;;;11.60;99.90;;;;;;5034147;28;20421;-32
2022/03/12 08:27:32;;;;;;;8.68;4.78;;;11.50;99.90;;;;;;5034354;28;20079;-44
2022/03/12 08:29:59;;;;;;;15.48;4.65;;;11.70;99.90;;;;;;5033012;28;20474;-47
2022/03/12 08:32:24;;;;;;;11.95;4.72;;;11.70;99.90;;;;;;5025874;28;20076;-37
2022/03/12 08:34:50;;;;;;;8.02;4.57;;;11.70;99.90;;;;;;5032243;28;20025;-37
2022/03/12 08:37:15;;;;;;;7.00;4.25;;;11.80;99.90;;;;;;5028563;28;20112;-39
2022/03/12 08:39:41;;;;;;;6.97;4.57;;;11.80;99.90;;;;;;5014832;28;20018;-38
2022/03/12 08:42:08;;;;;;;7.47;4.70;;;11.80;99.90;;;;;;5012828;28;20061;-40
2022/03/12 08:44:34;;;;;;;7.87;4.70;;;11.90;99.90;;;;;;5027262;28;20097;-43
2022/03/12 08:47:00;;;;;;;7.63;4.18;;;11.90;99.90;;;;;;5030696;28;20064;-42
2022/03/12 08:49:25;;;;;;;5.93;4.40;;;12.00;99.90;;;;;;5025232;28;20068;-40
2022/03/12 08:51:51;;;;;;;9.05;5.18;;;12.10;99.90;;;;;;5033733;28;20025;-40
2022/03/12 08:54:17;;;;;;;7.38;4.03;;;12.20;99.90;;;;;;5033490;28;20025;-38
2022/03/12 08:56:43;;;;;;;7.28;3.97;;;12.30;99.90;;;;;;5014576;28;20025;-34
2022/03/12 08:59:09;;;;;;;10.18;4.20;;;12.40;99.90;;;;;;5024405;28;20433;-34
2022/03/12 09:01:36;;;;;;;5.75;3.50;;;12.30;99.90;;;;;;5013678;28;20079;-33
2022/03/12 09:04:02;;;;;;;6.60;3.80;;;12.20;99.90;;;;;;5031961;28;20470;-33
2022/03/12 09:06:29;;;;;;;7.18;4.43;;;12.20;99.90;;;;;;5024662;28;20041;-40
2022/03/12 09:08:55;;;;;;;6.93;4.10;;;12.20;99.90;;;;;;5020065;28;20032;-41
2022/03/12 09:11:21;;;;;;;9.43;4.03;;;12.30;99.90;;;;;;5020307;28;20487;-39
2022/03/12 09:13:47;;;;;;;9.18;3.78;;;12.40;99.90;;;;;;5018365;28;20065;-42
2022/03/12 09:16:14;;;;;;;5.72;3.72;;;12.50;99.90;;;;;;5019934;28;20056;-53
2022/03/12 09:18:42;;;;;;;8.02;4.13;;;12.50;99.90;;;;;;5033037;28;20559;-41
2022/03/12 09:21:10;;;;;;;8.35;4.10;;;12.60;99.90;;;;;;5013989;28;20026;-41
2022/03/12 09:23:36;;;;;;;5.53;3.40;;;12.70;99.90;;;;;;5032850;28;20033;-40
2022/03/12 09:26:02;;;;;;;5.22;3.35;;;12.70;99.90;;;;;;5025086;28;20036;-47
2022/03/12 09:28:29;;;;;;;6.22;2.97;;;12.90;99.90;;;;;;5013333;28;20025;-61
2022/03/12 09:30:55;;;;;;;6.80;3.20;;;13.10;99.90;;;;;;5014506;28;20064;-39
2022/03/12 09:33:22;;;;;;;4.65;3.28;;;13.20;99.90;;;;;;5031309;28;20060;-39
2022/03/12 09:35:49;;;;;;;5.32;3.22;;;13.20;99.90;;;;;;5017151;28;20029;-38
2022/03/12 09:38:15;;;;;;;8.43;3.80;;;13.20;99.90;;;;;;5022648;28;20030;-39
2022/03/12 09:40:42;;;;;;;11.13;3.40;;;13.10;99.90;;;;;;5022200;28;20041;-41
2022/03/12 09:43:09;;;;;;;6.30;2.43;;;13.00;99.90;;;;;;5018749;28;20507;-39
2022/03/12 09:45:35;;;;;;;7.13;2.63;;;12.90;99.90;;;;;;5019510;28;20288;-39
2022/03/12 09:48:01;;;;;;;6.00;2.58;;;12.80;99.90;;;;;;5030865;28;20029;-39
2022/03/12 09:50:27;;;;;;;2.95;1.95;;;12.80;99.90;;;;;;5030345;28;20021;-39
2022/03/12 09:52:53;;;;;;;5.45;2.28;;;12.90;99.90;;;;;;5029150;28;20072;-40
2022/03/12 09:55:19;;;;;;;2.33;1.80;;;12.90;99.90;;;;;;5031714;28;20045;-45
2022/03/12 09:57:46;;;;;;;6.28;1.90;;;13.00;99.90;;;;;;5024648;28;20026;-40
2022/03/12 10:00:12;;;;;;;6.07;1.85;;;13.10;99.90;;;;;;5026849;28;20034;-41
2022/03/12 10:02:39;;;;;;;6.95;2.45;;;13.10;99.90;;;;;;5028583;28;20025;-43
2022/03/12 10:05:05;;;;;;;3.33;2.30;;;13.10;99.90;;;;;;5032717;28;20021;-40
2022/03/12 10:07:31;;;;;;;3.80;2.13;;;13.10;99.90;;;;;;5030320;28;20033;-41
2022/03/12 10:09:57;;;;;;;5.63;2.45;;;13.20;99.90;;;;;;5024092;28;20505;-39
2022/03/12 10:12:23;;;;;;;4.70;2.13;;;13.40;99.90;;;;;;5023959;28;20032;-40
2022/03/12 10:14:49;;;;;;;4.10;2.15;;;13.70;99.90;;;;;;5014427;28;20088;-40
2022/03/12 10:17:18;;;;;;;9.07;1.95;;;13.90;99.90;;;;;;5023133;28;20067;-41
2022/03/12 10:19:45;;;;;;;4.07;1.95;;;13.90;99.90;;;;;;5026952;28;20034;-40
2022/03/12 10:22:11;;;;;;;6.57;2.40;;;14.00;99.90;;;;;;5018465;28;20022;-37
2022/03/12 10:24:37;;;;;;;3.42;1.85;;;14.10;99.90;;;;;;5012649;28;20026;-33
2022/03/12 10:27:06;;;;;;;2.53;1.60;;;14.20;99.90;;;;;;5020530;28;20025;-34
2022/03/12 10:29:34;;;;;;;2.95;1.80;;;14.30;99.90;;;;;;5017588;28;20037;-36
2022/03/12 10:32:00;;;;;;;5.22;1.38;;;14.40;99.90;;;;;;5033749;28;20026;-34
2022/03/12 10:34:27;;;;;;;5.82;2.28;;;14.50;99.90;;;;;;5031519;28;20045;-32
2022/03/12 10:36:57;;;;;;;8.27;1.77;;;14.50;99.90;;;;;;5028492;28;20493;-34
2022/03/12 10:39:37;;;;;;;4.10;1.75;;;14.40;99.90;;;;;;5033019;28;20039;-34
2022/03/12 10:42:08;;;;;;;1.73;1.45;;;14.50;99.90;;;;;;5033446;28;20025;-36
2022/03/12 10:44:41;;;;;;;6.22;1.60;;;14.50;99.90;;;;;;5029536;28;20022;-34
2022/03/12 10:47:21;;;;;;;2.30;1.50;;;14.40;99.90;;;;;;5020698;28;20022;-36
2022/03/12 10:50:06;;;;;;;3.10;1.67;;;14.50;99.90;;;;;;5033852;28;20057;-33
2022/03/12 10:52:32;;;;;;;2.75;1.73;;;14.60;99.90;;;;;;5028614;28;20041;-37
2022/03/12 10:55:00;;;;;;;4.90;1.48;;;14.50;99.90;;;;;;5022010;28;20022;-36
2022/03/12 10:57:27;;;;;;;2.08;1.67;;;14.40;99.90;;;;;;5019639;28;20104;-36
2022/03/12 10:59:56;;;;;;;5.72;2.38;;;14.40;99.90;;;;;;5034420;28;20490;-32
2022/03/12 11:02:22;;;;;;;5.55;2.08;;;14.50;99.90;;;;;;5017795;28;20033;-32
2022/03/12 11:04:48;;;;;;;5.55;1.58;;;14.50;99.90;;;;;;5021347;28;20033;-38
2022/03/12 11:07:28;;;;;;;2.97;1.52;;;14.60;99.90;;;;;;5023303;28;20022;-45
2022/03/12 11:10:14;;;;;;;5.45;1.95;;;14.80;99.90;;;;;;5020056;28;20022;-31
2022/03/12 11:12:39;;;;;;;3.72;1.35;;;14.90;99.90;;;;;;5022355;28;20041;-34
2022/03/12 11:15:14;;;;;;;2.85;1.63;;;15.00;99.90;;;;;;5020323;28;20558;-38
2022/03/12 11:17:44;;;;;;;5.57;1.60;;;15.00;99.90;;;;;;5014348;28;20033;-38
2022/03/12 11:20:21;;;;;;;7.85;2.00;;;15.10;99.90;;;;;;5033494;28;20104;-51
2022/03/12 11:23:04;;;;;;;2.85;1.60;;;15.00;99.90;;;;;;5035589;28;20025;-33
2022/03/12 11:25:30;;;;;;;3.30;1.60;;;15.00;99.90;;;;;;5027076;28;20025;-37
2022/03/12 11:27:59;;;;;;;1.92;1.50;;;14.90;99.90;;;;;;5021943;28;20040;-34
2022/03/12 11:30:28;;;;;;;2.70;1.10;;;14.80;99.90;;;;;;5028621;28;20021;-41
2022/03/12 11:33:05;;;;;;;4.70;2.03;;;14.80;99.90;;;;;;5022397;28;20061;-33
2022/03/12 11:35:39;;;;;;;5.63;1.80;;;14.90;99.90;;;;;;5032005;28;20119;-36
2022/03/12 11:38:15;;;;;;;3.95;1.48;;;15.10;99.90;;;;;;5032065;28;20055;-31
2022/03/12 11:41:09;;;;;;;3.33;1.77;;;15.50;99.90;;;;;;5034278;28;20489;-33
2022/03/12 11:43:40;;;;;;;7.10;2.20;;;15.70;99.90;;;;;;5030983;28;20045;-31
2022/03/12 11:46:07;;;;;;;4.60;1.58;;;15.80;99.90;;;;;;5031093;28;20132;-32
2022/03/12 11:48:36;;;;;;;2.60;1.55;;;15.80;99.90;;;;;;5015426;28;20402;-41
2022/03/12 11:51:07;;;;;;;2.35;1.52;;;15.70;99.80;;;;;;5032064;28;20467;-35
2022/03/12 11:53:36;;;;;;;5.07;2.00;;;15.50;99.90;;;;;;5024568;28;20037;-34
2022/03/12 11:56:04;;;;;;;8.15;1.70;;;15.40;99.80;;;;;;5024439;28;20490;-37
2022/03/12 11:58:32;;;;;;;6.38;1.75;;;15.50;99.90;;;;;;5028345;28;20349;-33
2022/03/12 12:00:57;;;;;;;;;;;15.70;99.90;;;;;;5026665;28;20467;-34
2022/03/12 12:03:23;;;;;;;2.67;1.83;;;15.90;99.50;;;;;;5031679;28;19920;-32
2022/03/12 12:05:49;;;;;;;2.47;1.73;;;16.00;99.70;;;;;;5014310;28;20034;-35
2022/03/12 12:08:15;;;;;;;4.93;1.63;;;15.80;99.40;;;;;;5014450;28;20049;-34
2022/03/12 12:10:42;;;;;;;4.38;2.10;;;15.70;99.90;;;;;;5018112;28;20057;-35
2022/03/12 12:13:15;;;;;;;3.70;1.90;;;15.90;99.90;;;;;;5022994;28;20018;-39
2022/03/12 12:15:45;;;;;;;6.43;2.00;;;16.00;99.30;;;;;;5030763;28;20041;-36
2022/03/12 12:18:12;;;;;;;4.22;2.35;;;16.10;99.10;;;;;;5014729;28;20049;-35
2022/03/12 12:20:39;;;;;;;4.00;1.67;;;16.10;99.10;;;;;;5014640;28;20022;-36
2022/03/12 12:23:06;;;;;;;6.00;2.20;;;16.00;99.30;;;;;;5014458;28;20654;-34
2022/03/12 12:25:34;;;;;;;1.60;1.50;;;16.10;99.10;;;;;;5014251;28;20037;-34
2022/03/12 12:28:00;;;;;;;5.65;2.20;;;16.20;99.40;;;;;;5015493;28;20031;-32
2022/03/12 12:30:42;;;;;;;2.45;1.50;;;16.30;98.40;;;;;;5016270;28;20056;-32
2022/03/12 12:33:29;;;;;;;2.67;1.42;;;16.20;98.50;;;;;;5024491;28;20168;-35
2022/03/12 12:36:15;;;;;;;2.13;1.48;;;16.20;98.80;;;;;;5029956;28;20020;-35
2022/03/12 12:39:06;;;;;;;4.15;1.65;;;16.20;98.70;;;;;;5032981;28;20025;-35
2022/03/12 12:41:58;;;;;;;4.80;1.45;;;16.30;98.90;;;;;;5019384;28;20091;-35
2022/03/12 12:44:54;;;;;;;4.43;1.67;;;16.40;98.40;;;;;;5022190;28;20061;-50
2022/03/12 12:47:21;;;;;;;5.32;1.60;;;16.50;98.30;;;;;;5019227;28;20483;-33
2022/03/12 12:49:55;;;;;;;7.40;4.45;;;16.60;97.70;;;;;;5025640;28;20033;-33
2022/03/12 12:52:23;;;;;;;6.57;1.50;;;16.60;97.60;;;;;;5015075;28;20041;-35
2022/03/12 12:55:01;;;;;;;6.38;1.83;;;16.80;97.30;;;;;;5025555;28;20064;-33